createdAt,value
2018-09-30T00:00:53.033Z,1014.82
2018-09-30T00:01:53.004Z,1014.83
2018-09-30T00:02:53.672Z,1014.80
2018-09-30T00:03:52.939Z,1014.78
2018-09-30T00:04:52.909Z,1014.78
2018-09-30T00:05:52.878Z,1014.78
2018-09-30T00:06:52.846Z,1014.79
2018-09-30T00:07:52.815Z,1014.79
2018-09-30T00:08:52.784Z,1014.77
2018-09-30T00:09:52.753Z,1014.73
2018-09-30T00:10:52.720Z,1014.76
2018-09-30T00:11:52.690Z,1014.74
2018-09-30T00:12:52.661Z,1014.71
2018-09-30T00:13:52.628Z,1014.71
2018-09-30T00:14:52.596Z,1014.71
2018-09-30T00:15:52.565Z,1014.67
2018-09-30T00:16:52.531Z,1014.66
2018-09-30T00:17:52.503Z,1014.68
2018-09-30T00:18:52.470Z,1014.61
2018-09-30T00:19:52.440Z,1014.63
2018-09-30T00:20:52.408Z,1014.62
2018-09-30T00:21:52.378Z,1014.67
2018-09-30T00:22:52.346Z,1014.66
2018-09-30T00:23:52.315Z,1014.66
2018-09-30T00:24:52.284Z,1014.66
2018-09-30T00:25:52.252Z,1014.68
2018-09-30T00:26:52.219Z,1014.68
2018-09-30T00:27:52.189Z,1014.67
2018-09-30T00:28:52.157Z,1014.68
2018-09-30T00:29:52.127Z,1014.64
2018-09-30T00:30:52.096Z,1014.61
2018-09-30T00:31:52.065Z,1014.62
2018-09-30T00:32:52.033Z,1014.63
2018-09-30T00:33:52.002Z,1014.63
2018-09-30T00:34:51.969Z,1014.62
2018-09-30T00:35:51.940Z,1014.61
2018-09-30T00:36:51.908Z,1014.59
2018-09-30T00:37:51.880Z,1014.58
2018-09-30T00:38:51.846Z,1014.60
2018-09-30T00:39:51.813Z,1014.58
2018-09-30T00:40:51.782Z,1014.60
2018-09-30T00:41:51.751Z,1014.58
2018-09-30T00:42:51.720Z,1014.55
2018-09-30T00:43:51.689Z,1014.53
2018-09-30T00:44:51.660Z,1014.53
2018-09-30T00:45:51.627Z,1014.53
2018-09-30T00:46:51.594Z,1014.51
2018-09-30T00:47:51.562Z,1014.47
2018-09-30T00:48:51.531Z,1014.52
2018-09-30T00:49:51.502Z,1014.54
2018-09-30T00:50:51.468Z,1014.53
2018-09-30T00:51:51.436Z,1014.49
2018-09-30T00:52:51.403Z,1014.49
2018-09-30T00:53:51.375Z,1014.50
2018-09-30T00:54:51.343Z,1014.49
2018-09-30T00:55:51.310Z,1014.43
2018-09-30T00:56:51.280Z,1014.46
2018-09-30T00:57:51.251Z,1014.49
2018-09-30T00:58:51.216Z,1014.47
2018-09-30T00:59:51.188Z,1014.48
2018-09-30T01:00:51.154Z,1014.44
2018-09-30T01:01:51.123Z,1014.44
2018-09-30T01:02:51.093Z,1014.44
2018-09-30T01:03:51.062Z,1014.43
2018-09-30T01:04:51.029Z,1014.41
2018-09-30T01:05:50.997Z,1014.38
2018-09-30T01:06:50.964Z,1014.37
2018-09-30T01:07:50.935Z,1014.38
2018-09-30T01:08:50.902Z,1014.34
2018-09-30T01:09:50.873Z,1014.36
2018-09-30T01:10:50.837Z,1014.34
2018-09-30T01:11:50.810Z,1014.30
2018-09-30T01:12:50.777Z,1014.30
2018-09-30T01:13:50.746Z,1014.27
2018-09-30T01:14:50.714Z,1014.27
2018-09-30T01:15:50.683Z,1014.24
2018-09-30T01:16:50.652Z,1014.21
2018-09-30T01:17:50.621Z,1014.15
2018-09-30T01:18:50.588Z,1014.14
2018-09-30T01:19:50.556Z,1014.19
2018-09-30T01:20:50.526Z,1014.15
2018-09-30T01:21:50.496Z,1014.14
2018-09-30T01:22:50.461Z,1014.16
2018-09-30T01:23:50.468Z,1014.13
2018-09-30T01:24:50.400Z,1014.16
2018-09-30T01:25:50.367Z,1014.12
2018-09-30T01:26:50.336Z,1014.12
2018-09-30T01:27:50.305Z,1014.10
2018-09-30T01:28:50.274Z,1014.09
2018-09-30T01:29:50.243Z,1014.08
2018-09-30T01:30:50.208Z,1014.03
2018-09-30T01:31:50.177Z,1014.04
2018-09-30T01:32:50.147Z,1014.03
2018-09-30T01:33:50.114Z,1014.01
2018-09-30T01:34:50.083Z,1014.00
2018-09-30T01:35:50.050Z,1013.97
2018-09-30T01:36:50.017Z,1013.95
2018-09-30T01:37:49.991Z,1013.91
2018-09-30T01:38:49.956Z,1013.94
2018-09-30T01:39:49.924Z,1013.93
2018-09-30T01:40:49.896Z,1013.92
2018-09-30T01:41:49.863Z,1013.91
2018-09-30T01:42:49.830Z,1013.91
2018-09-30T01:43:49.799Z,1013.91
2018-09-30T01:44:49.768Z,1013.91
2018-09-30T01:45:49.736Z,1013.94
2018-09-30T01:46:49.704Z,1013.93
2018-09-30T01:47:49.672Z,1013.89
2018-09-30T01:48:49.641Z,1013.87
2018-09-30T01:49:49.610Z,1013.86
2018-09-30T01:50:49.576Z,1013.86
2018-09-30T01:51:49.546Z,1013.85
2018-09-30T01:52:49.514Z,1013.86
2018-09-30T01:53:49.482Z,1013.83
2018-09-30T01:54:49.451Z,1013.79
2018-09-30T01:55:49.419Z,1013.82
2018-09-30T01:56:50.188Z,1013.75
2018-09-30T01:57:49.356Z,1013.77
2018-09-30T01:58:49.324Z,1013.77
2018-09-30T01:59:49.294Z,1013.76
2018-09-30T02:00:49.260Z,1013.79
2018-09-30T02:01:49.230Z,1013.78
2018-09-30T02:02:49.198Z,1013.74
2018-09-30T02:03:49.166Z,1013.75
2018-09-30T02:04:49.132Z,1013.72
2018-09-30T02:05:49.102Z,1013.73
2018-09-30T02:06:49.070Z,1013.73
2018-09-30T02:07:49.038Z,1013.70
2018-09-30T02:08:49.007Z,1013.68
2018-09-30T02:09:48.978Z,1013.73
2018-09-30T02:10:48.942Z,1013.70
2018-09-30T02:11:48.910Z,1013.70
2018-09-30T02:12:48.879Z,1013.65
2018-09-30T02:13:48.848Z,1013.68
2018-09-30T02:14:48.818Z,1013.61
2018-09-30T02:15:48.788Z,1013.58
2018-09-30T02:16:48.753Z,1013.58
2018-09-30T02:17:48.721Z,1013.59
2018-09-30T02:18:48.689Z,1013.56
2018-09-30T02:19:48.657Z,1013.58
2018-09-30T02:20:48.627Z,1013.55
2018-09-30T02:21:48.597Z,1013.54
2018-09-30T02:22:48.560Z,1013.51
2018-09-30T02:23:48.534Z,1013.50
2018-09-30T02:24:48.498Z,1013.52
2018-09-30T02:25:48.468Z,1013.47
2018-09-30T02:26:48.436Z,1013.51
2018-09-30T02:27:48.403Z,1013.47
2018-09-30T02:28:48.372Z,1013.42
2018-09-30T02:29:48.344Z,1013.44
2018-09-30T02:30:48.307Z,1013.39
2018-09-30T02:31:48.278Z,1013.42
2018-09-30T02:32:48.245Z,1013.40
2018-09-30T02:33:48.213Z,1013.40
2018-09-30T02:34:48.182Z,1013.41
2018-09-30T02:35:48.149Z,1013.40
2018-09-30T02:36:48.121Z,1013.35
2018-09-30T02:37:48.087Z,1013.37
2018-09-30T02:38:48.055Z,1013.38
2018-09-30T02:39:48.023Z,1013.34
2018-09-30T02:40:47.993Z,1013.34
2018-09-30T02:41:47.961Z,1013.29
2018-09-30T02:42:47.932Z,1013.30
2018-09-30T02:43:47.901Z,1013.31
2018-09-30T02:44:47.865Z,1013.30
2018-09-30T02:45:47.835Z,1013.29
2018-09-30T02:46:47.800Z,1013.30
2018-09-30T02:47:47.770Z,1013.31
2018-09-30T02:48:47.738Z,1013.29
2018-09-30T02:49:47.708Z,1013.30
2018-09-30T02:50:48.207Z,1013.26
2018-09-30T02:51:47.644Z,1013.28
2018-09-30T02:52:47.611Z,1013.23
2018-09-30T02:53:47.581Z,1013.25
2018-09-30T02:54:47.547Z,1013.24
2018-09-30T02:55:47.516Z,1013.22
2018-09-30T02:56:47.494Z,1013.20
2018-09-30T02:57:47.457Z,1013.15
2018-09-30T02:58:47.422Z,1013.17
2018-09-30T02:59:47.390Z,1013.18
2018-09-30T03:00:47.359Z,1013.16
2018-09-30T03:01:47.328Z,1013.13
2018-09-30T03:02:47.294Z,1013.11
2018-09-30T03:03:47.263Z,1013.15
2018-09-30T03:04:47.233Z,1013.13
2018-09-30T03:05:47.201Z,1013.09
2018-09-30T03:06:47.168Z,1013.11
2018-09-30T03:07:47.138Z,1013.09
2018-09-30T03:08:47.106Z,1013.09
2018-09-30T03:09:47.075Z,1013.08
2018-09-30T03:10:47.041Z,1013.06
2018-09-30T03:11:47.011Z,1013.07
2018-09-30T03:12:46.980Z,1013.02
2018-09-30T03:13:46.960Z,1012.99
2018-09-30T03:14:47.698Z,1012.93
2018-09-30T03:15:46.886Z,1012.93
2018-09-30T03:16:46.860Z,1012.89
2018-09-30T03:17:46.823Z,1012.90
2018-09-30T03:18:46.795Z,1012.91
2018-09-30T03:19:46.760Z,1012.91
2018-09-30T03:20:46.729Z,1012.88
2018-09-30T03:21:46.697Z,1012.90
2018-09-30T03:22:46.670Z,1012.83
2018-09-30T03:23:46.633Z,1012.82
2018-09-30T03:24:46.603Z,1012.77
2018-09-30T03:25:46.570Z,1012.77
2018-09-30T03:26:46.539Z,1012.75
2018-09-30T03:27:46.507Z,1012.76
2018-09-30T03:28:46.475Z,1012.75
2018-09-30T03:29:46.447Z,1012.72
2018-09-30T03:30:46.413Z,1012.74
2018-09-30T03:31:46.382Z,1012.71
2018-09-30T03:32:46.362Z,1012.70
2018-09-30T03:33:46.320Z,1012.71
2018-09-30T03:34:46.287Z,1012.72
2018-09-30T03:35:46.256Z,1012.74
2018-09-30T03:36:46.225Z,1012.73
2018-09-30T03:37:46.194Z,1012.72
2018-09-30T03:38:46.161Z,1012.67
2018-09-30T03:39:46.134Z,1012.67
2018-09-30T03:40:46.100Z,1012.67
2018-09-30T03:41:46.067Z,1012.64
2018-09-30T03:42:46.035Z,1012.68
2018-09-30T03:43:46.005Z,1012.67
2018-09-30T03:44:45.973Z,1012.63
2018-09-30T03:45:45.943Z,1012.61
2018-09-30T03:46:45.910Z,1012.60
2018-09-30T03:47:45.879Z,1012.58
2018-09-30T03:48:45.846Z,1012.62
2018-09-30T03:49:45.816Z,1012.60
2018-09-30T03:50:45.784Z,1012.59
2018-09-30T03:51:45.755Z,1012.58
2018-09-30T03:52:45.727Z,1012.60
2018-09-30T03:53:45.692Z,1012.56
2018-09-30T03:54:45.658Z,1012.55
2018-09-30T03:55:45.630Z,1012.57
2018-09-30T03:56:45.695Z,1012.50
2018-09-30T03:57:45.566Z,1012.50
2018-09-30T03:58:45.533Z,1012.47
2018-09-30T03:59:45.502Z,1012.49
2018-09-30T04:00:45.471Z,1012.49
2018-09-30T04:01:45.438Z,1012.49
2018-09-30T04:02:45.406Z,1012.48
2018-09-30T04:03:45.375Z,1012.46
2018-09-30T04:04:45.344Z,1012.42
2018-09-30T04:05:45.313Z,1012.44
2018-09-30T04:06:45.280Z,1012.37
2018-09-30T04:07:45.250Z,1012.41
2018-09-30T04:08:45.217Z,1012.41
2018-09-30T04:09:45.261Z,1012.36
2018-09-30T04:10:45.155Z,1012.38
2018-09-30T04:11:45.123Z,1012.41
2018-09-30T04:12:45.094Z,1012.35
2018-09-30T04:13:45.061Z,1012.41
2018-09-30T04:14:45.029Z,1012.38
2018-09-30T04:15:44.998Z,1012.40
2018-09-30T04:16:45.058Z,1012.39
2018-09-30T04:17:44.934Z,1012.37
2018-09-30T04:18:44.903Z,1012.37
2018-09-30T04:19:44.872Z,1012.35
2018-09-30T04:20:44.839Z,1012.34
2018-09-30T04:21:44.808Z,1012.35
2018-09-30T04:22:44.775Z,1012.33
2018-09-30T04:23:44.745Z,1012.35
2018-09-30T04:24:44.715Z,1012.35
2018-09-30T04:25:44.683Z,1012.37
2018-09-30T04:26:44.650Z,1012.35
2018-09-30T04:27:44.617Z,1012.32
2018-09-30T04:28:44.589Z,1012.29
2018-09-30T04:29:44.557Z,1012.28
2018-09-30T04:30:44.524Z,1012.28
2018-09-30T04:31:44.492Z,1012.30
2018-09-30T04:32:44.461Z,1012.30
2018-09-30T04:33:44.431Z,1012.27
2018-09-30T04:34:44.397Z,1012.28
2018-09-30T04:35:44.367Z,1012.28
2018-09-30T04:36:44.334Z,1012.25
2018-09-30T04:37:44.306Z,1012.23
2018-09-30T04:38:44.270Z,1012.25
2018-09-30T04:39:44.240Z,1012.23
2018-09-30T04:40:44.210Z,1012.16
2018-09-30T04:41:44.180Z,1012.16
2018-09-30T04:42:44.145Z,1012.14
2018-09-30T04:43:44.114Z,1012.15
2018-09-30T04:44:44.083Z,1012.14
2018-09-30T04:45:44.053Z,1012.10
2018-09-30T04:46:44.019Z,1012.12
2018-09-30T04:47:43.988Z,1012.09
2018-09-30T04:48:44.712Z,1012.09
2018-09-30T04:49:43.926Z,1012.09
2018-09-30T04:50:43.892Z,1012.10
2018-09-30T04:51:43.861Z,1012.08
2018-09-30T04:52:43.848Z,1012.05
2018-09-30T04:53:43.796Z,1012.07
2018-09-30T04:54:43.779Z,1012.09
2018-09-30T04:55:43.734Z,1012.07
2018-09-30T04:56:43.703Z,1012.09
2018-09-30T04:57:43.671Z,1012.05
2018-09-30T04:58:44.211Z,1012.04
2018-09-30T04:59:43.610Z,1012.00
2018-09-30T05:00:51.023Z,1011.99
2018-09-30T05:02:37.183Z,1011.95
2018-09-30T05:03:37.125Z,1011.97
2018-09-30T05:05:29.929Z,1011.97
2018-09-30T05:06:29.890Z,1012.00
2018-09-30T05:08:24.510Z,1011.96
2018-09-30T05:09:24.445Z,1011.95
2018-09-30T05:11:18.025Z,1011.89
2018-09-30T05:12:18.839Z,1011.91
2018-09-30T05:14:11.315Z,1011.94
2018-09-30T05:15:11.256Z,1011.92
2018-09-30T05:17:04.840Z,1011.87
2018-09-30T05:18:05.653Z,1011.86
2018-09-30T05:19:58.422Z,1011.88
2018-09-30T05:20:58.359Z,1011.88
2018-09-30T05:22:52.000Z,1011.82
2018-09-30T05:23:51.967Z,1011.82
2018-09-30T05:25:45.638Z,1011.77
2018-09-30T05:26:45.516Z,1011.75
2018-09-30T05:28:38.320Z,1011.76
2018-09-30T05:29:38.281Z,1011.74
2018-09-30T05:31:31.100Z,1011.80
2018-09-30T05:32:31.047Z,1011.81
2018-09-30T05:34:24.344Z,1011.84
2018-09-30T05:35:24.314Z,1011.86
2018-09-30T05:37:17.668Z,1011.81
2018-09-30T05:38:17.571Z,1011.79
2018-09-30T05:40:10.681Z,1011.78
2018-09-30T05:41:10.629Z,1011.74
2018-09-30T05:43:03.431Z,1011.76
2018-09-30T05:44:03.394Z,1011.77
2018-09-30T05:45:56.215Z,1011.82
2018-09-30T05:46:56.157Z,1011.82
2018-09-30T05:48:49.048Z,1011.83
2018-09-30T05:49:48.927Z,1011.84
2018-09-30T05:50:48.891Z,1011.81
2018-09-30T05:51:48.863Z,1011.86
2018-09-30T05:52:49.557Z,1011.87
2018-09-30T05:53:48.798Z,1011.82
2018-09-30T05:54:48.767Z,1011.79
2018-09-30T05:55:48.733Z,1011.81
2018-09-30T05:56:48.703Z,1011.80
2018-09-30T05:57:48.675Z,1011.79
2018-09-30T05:58:48.642Z,1011.77
2018-09-30T05:59:48.608Z,1011.79
2018-09-30T06:00:48.587Z,1011.77
2018-09-30T06:01:49.060Z,1011.78
2018-09-30T06:02:48.514Z,1011.76
2018-09-30T06:03:48.492Z,1011.74
2018-09-30T06:04:48.452Z,1011.75
2018-09-30T06:05:48.422Z,1011.73
2018-09-30T06:06:48.389Z,1011.77
2018-09-30T06:07:48.358Z,1011.74
2018-09-30T06:08:48.326Z,1011.74
2018-09-30T06:09:48.296Z,1011.74
2018-09-30T06:10:48.263Z,1011.74
2018-09-30T06:11:48.228Z,1011.75
2018-09-30T06:12:48.201Z,1011.78
2018-09-30T06:13:48.219Z,1011.75
2018-09-30T06:14:48.141Z,1011.75
2018-09-30T06:15:48.114Z,1011.78
2018-09-30T06:16:48.078Z,1011.77
2018-09-30T06:17:48.042Z,1011.76
2018-09-30T06:18:48.014Z,1011.78
2018-09-30T06:19:47.981Z,1011.79
2018-09-30T06:20:47.951Z,1011.81
2018-09-30T06:21:47.917Z,1011.81
2018-09-30T06:22:47.888Z,1011.78
2018-09-30T06:23:48.563Z,1011.77
2018-09-30T06:24:47.826Z,1011.78
2018-09-30T06:25:47.794Z,1011.80
2018-09-30T06:26:47.759Z,1011.77
2018-09-30T06:27:47.731Z,1011.77
2018-09-30T06:28:47.700Z,1011.73
2018-09-30T06:29:47.671Z,1011.71
2018-09-30T06:30:47.648Z,1011.70
2018-09-30T06:31:47.641Z,1011.70
2018-09-30T06:32:47.578Z,1011.73
2018-09-30T06:33:47.546Z,1011.71
2018-09-30T06:34:47.514Z,1011.73
2018-09-30T06:35:47.486Z,1011.76
2018-09-30T06:36:48.064Z,1011.77
2018-09-30T06:37:47.422Z,1011.75
2018-09-30T06:38:47.395Z,1011.73
2018-09-30T06:39:47.361Z,1011.75
2018-09-30T06:40:47.329Z,1011.70
2018-09-30T06:41:47.301Z,1011.73
2018-09-30T06:42:47.269Z,1011.74
2018-09-30T06:43:48.064Z,1011.73
2018-09-30T06:44:47.229Z,1011.74
2018-09-30T06:45:47.176Z,1011.72
2018-09-30T06:46:47.150Z,1011.72
2018-09-30T06:47:47.118Z,1011.72
2018-09-30T06:48:47.088Z,1011.72
2018-09-30T06:49:47.055Z,1011.73
2018-09-30T06:50:47.092Z,1011.72
2018-09-30T06:51:46.995Z,1011.68
2018-09-30T06:52:46.965Z,1011.68
2018-09-30T06:53:46.937Z,1011.70
2018-09-30T06:54:46.904Z,1011.65
2018-09-30T06:55:46.872Z,1011.67
2018-09-30T06:56:46.845Z,1011.64
2018-09-30T06:57:46.816Z,1011.64
2018-09-30T06:58:46.784Z,1011.60
2018-09-30T06:59:46.754Z,1011.60
2018-09-30T07:00:46.724Z,1011.61
2018-09-30T07:01:46.693Z,1011.55
2018-09-30T07:02:46.662Z,1011.55
2018-09-30T07:03:46.633Z,1011.58
2018-09-30T07:04:46.624Z,1011.55
2018-09-30T07:05:46.574Z,1011.53
2018-09-30T07:06:46.544Z,1011.54
2018-09-30T07:07:46.514Z,1011.53
2018-09-30T07:08:46.485Z,1011.47
2018-09-30T07:09:46.455Z,1011.49
2018-09-30T07:10:46.475Z,1011.49
2018-09-30T07:11:46.395Z,1011.53
2018-09-30T07:12:46.365Z,1011.50
2018-09-30T07:13:46.336Z,1011.55
2018-09-30T07:14:46.308Z,1011.47
2018-09-30T07:15:46.278Z,1011.49
2018-09-30T07:16:46.288Z,1011.46
2018-09-30T07:17:46.218Z,1011.53
2018-09-30T07:18:46.187Z,1011.50
2018-09-30T07:19:46.162Z,1011.48
2018-09-30T07:20:46.128Z,1011.44
2018-09-30T07:21:46.098Z,1011.45
2018-09-30T07:22:46.078Z,1011.44
2018-09-30T07:23:46.042Z,1011.50
2018-09-30T07:24:46.013Z,1011.47
2018-09-30T07:25:45.983Z,1011.45
2018-09-30T07:26:45.952Z,1011.43
2018-09-30T07:27:45.922Z,1011.46
2018-09-30T07:28:47.567Z,1011.46
2018-09-30T07:29:45.870Z,1011.42
2018-09-30T07:30:45.837Z,1011.46
2018-09-30T07:31:45.805Z,1011.43
2018-09-30T07:32:45.774Z,1011.44
2018-09-30T07:33:45.756Z,1011.40
2018-09-30T07:34:45.719Z,1011.39
2018-09-30T07:35:45.690Z,1011.43
2018-09-30T07:36:45.665Z,1011.39
2018-09-30T07:37:45.629Z,1011.38
2018-09-30T07:38:45.603Z,1011.37
2018-09-30T07:39:45.575Z,1011.38
2018-09-30T07:40:45.546Z,1011.40
2018-09-30T07:41:45.517Z,1011.40
2018-09-30T07:42:45.492Z,1011.40
2018-09-30T07:43:45.458Z,1011.45
2018-09-30T07:44:45.431Z,1011.40
2018-09-30T07:45:45.399Z,1011.36
2018-09-30T07:46:45.415Z,1011.38
2018-09-30T07:47:45.343Z,1011.31
2018-09-30T07:48:45.313Z,1011.35
2018-09-30T07:49:45.284Z,1011.31
2018-09-30T07:50:45.254Z,1011.29
2018-09-30T07:51:45.227Z,1011.32
2018-09-30T07:52:45.198Z,1011.30
2018-09-30T07:53:45.170Z,1011.28
2018-09-30T07:54:45.137Z,1011.33
2018-09-30T07:55:45.109Z,1011.34
2018-09-30T07:56:45.082Z,1011.33
2018-09-30T07:57:45.053Z,1011.32
2018-09-30T07:58:45.023Z,1011.32
2018-09-30T07:59:44.997Z,1011.31
2018-09-30T08:00:44.962Z,1011.29
2018-09-30T08:01:44.935Z,1011.23
2018-09-30T08:02:44.907Z,1011.25
2018-09-30T08:03:44.876Z,1011.19
2018-09-30T08:04:44.849Z,1011.20
2018-09-30T08:05:44.818Z,1011.16
2018-09-30T08:06:44.790Z,1011.13
2018-09-30T08:07:44.758Z,1011.18
2018-09-30T08:08:44.732Z,1011.13
2018-09-30T08:09:44.702Z,1011.15
2018-09-30T08:10:44.674Z,1011.12
2018-09-30T08:11:44.644Z,1011.12
2018-09-30T08:12:44.618Z,1011.07
2018-09-30T08:13:44.587Z,1011.06
2018-09-30T08:14:44.559Z,1011.04
2018-09-30T08:15:44.530Z,1011.06
2018-09-30T08:16:44.508Z,1011.08
2018-09-30T08:17:45.083Z,1011.02
2018-09-30T08:18:44.443Z,1011.03
2018-09-30T08:19:44.415Z,1010.99
2018-09-30T08:20:44.387Z,1010.96
2018-09-30T08:21:44.376Z,1010.92
2018-09-30T08:22:44.333Z,1010.88
2018-09-30T08:23:44.300Z,1010.90
2018-09-30T08:24:44.273Z,1010.89
2018-09-30T08:25:44.243Z,1010.90
2018-09-30T08:26:44.215Z,1010.90
2018-09-30T08:27:45.080Z,1010.87
2018-09-30T08:28:44.158Z,1010.88
2018-09-30T08:29:44.129Z,1010.87
2018-09-30T08:30:44.128Z,1010.89
2018-09-30T08:31:44.072Z,1010.89
2018-09-30T08:32:44.045Z,1010.88
2018-09-30T08:33:44.015Z,1010.91
2018-09-30T08:34:43.987Z,1010.88
2018-09-30T08:35:44.586Z,1010.86
2018-09-30T08:36:43.932Z,1010.88
2018-09-30T08:37:43.905Z,1010.89
2018-09-30T08:38:43.877Z,1010.89
2018-09-30T08:39:43.928Z,1010.84
2018-09-30T08:40:43.822Z,1010.84
2018-09-30T08:41:43.793Z,1010.83
2018-09-30T08:42:43.768Z,1010.81
2018-09-30T08:43:43.778Z,1010.81
2018-09-30T08:44:43.714Z,1010.83
2018-09-30T08:45:43.740Z,1010.80
2018-09-30T08:46:43.695Z,1010.78
2018-09-30T08:47:43.722Z,1010.74
2018-09-30T08:48:43.602Z,1010.76
2018-09-30T08:49:43.574Z,1010.74
2018-09-30T08:50:43.549Z,1010.76
2018-09-30T08:51:43.526Z,1010.76
2018-09-30T08:52:43.495Z,1010.74
2018-09-30T08:53:43.490Z,1010.70
2018-09-30T08:54:43.440Z,1010.72
2018-09-30T08:55:43.434Z,1010.73
2018-09-30T08:56:43.390Z,1010.73
2018-09-30T08:57:43.359Z,1010.67
2018-09-30T08:58:43.335Z,1010.70
2018-09-30T08:59:43.321Z,1010.71
2018-09-30T09:00:43.284Z,1010.71
2018-09-30T09:01:43.254Z,1010.72
2018-09-30T09:02:43.232Z,1010.71
2018-09-30T09:03:43.204Z,1010.69
2018-09-30T09:04:43.178Z,1010.67
2018-09-30T09:05:43.151Z,1010.69
2018-09-30T09:06:43.126Z,1010.68
2018-09-30T09:07:43.099Z,1010.71
2018-09-30T09:08:43.074Z,1010.67
2018-09-30T09:09:43.092Z,1010.66
2018-09-30T09:10:43.022Z,1010.62
2018-09-30T09:11:42.996Z,1010.66
2018-09-30T09:12:42.970Z,1010.65
2018-09-30T09:13:42.944Z,1010.60
2018-09-30T09:14:42.923Z,1010.63
2018-09-30T09:15:42.895Z,1010.61
2018-09-30T09:16:42.870Z,1010.61
2018-09-30T09:17:42.843Z,1010.57
2018-09-30T09:18:42.818Z,1010.56
2018-09-30T09:19:42.794Z,1010.57
2018-09-30T09:20:42.769Z,1010.53
2018-09-30T09:21:42.744Z,1010.50
2018-09-30T09:22:42.766Z,1010.52
2018-09-30T09:23:42.693Z,1010.47
2018-09-30T09:24:42.668Z,1010.47
2018-09-30T09:25:42.640Z,1010.39
2018-09-30T09:26:42.617Z,1010.38
2018-09-30T09:27:42.591Z,1010.36
2018-09-30T09:28:42.565Z,1010.38
2018-09-30T09:29:42.540Z,1010.36
2018-09-30T09:30:42.516Z,1010.32
2018-09-30T09:31:42.544Z,1010.31
2018-09-30T09:32:42.463Z,1010.29
2018-09-30T09:33:42.436Z,1010.27
2018-09-30T09:34:42.411Z,1010.25
2018-09-30T09:35:42.386Z,1010.23
2018-09-30T09:36:42.360Z,1010.23
2018-09-30T09:37:42.336Z,1010.23
2018-09-30T09:38:42.310Z,1010.21
2018-09-30T09:39:42.282Z,1010.19
2018-09-30T09:40:42.257Z,1010.19
2018-09-30T09:41:42.231Z,1010.16
2018-09-30T09:42:42.206Z,1010.13
2018-09-30T09:43:42.184Z,1010.12
2018-09-30T09:44:42.161Z,1010.09
2018-09-30T09:45:42.126Z,1010.09
2018-09-30T09:46:42.101Z,1010.07
2018-09-30T09:47:42.077Z,1010.03
2018-09-30T09:48:42.051Z,1010.02
2018-09-30T09:49:42.025Z,1010.04
2018-09-30T09:50:41.997Z,1010.02
2018-09-30T09:51:41.971Z,1010.03
2018-09-30T09:52:41.976Z,1010.04
2018-09-30T09:53:41.920Z,1010.02
2018-09-30T09:54:41.910Z,1010.05
2018-09-30T09:55:41.870Z,1010.00
2018-09-30T09:56:41.842Z,1010.00
2018-09-30T09:57:41.817Z,1010.01
2018-09-30T09:58:41.791Z,1009.97
2018-09-30T09:59:43.604Z,1010.01
2018-09-30T10:00:41.740Z,1010.05
2018-09-30T10:01:41.715Z,1009.99
2018-09-30T10:02:41.689Z,1009.96
2018-09-30T10:03:41.663Z,1009.98
2018-09-30T10:04:41.637Z,1009.96
2018-09-30T10:05:41.609Z,1009.91
2018-09-30T10:06:41.586Z,1009.92
2018-09-30T10:07:41.561Z,1009.90
2018-09-30T10:08:41.532Z,1009.89
2018-09-30T10:09:41.513Z,1009.84
2018-09-30T10:10:41.482Z,1009.85
2018-09-30T10:11:41.456Z,1009.83
2018-09-30T10:12:41.430Z,1009.85
2018-09-30T10:13:41.404Z,1009.82
2018-09-30T10:14:41.380Z,1009.79
2018-09-30T10:15:41.355Z,1009.77
2018-09-30T10:16:41.326Z,1009.78
2018-09-30T10:17:41.301Z,1009.74
2018-09-30T10:18:41.277Z,1009.74
2018-09-30T10:19:42.105Z,1009.70
2018-09-30T10:20:41.226Z,1009.71
2018-09-30T10:21:41.196Z,1009.65
2018-09-30T10:22:41.170Z,1009.63
2018-09-30T10:23:41.145Z,1009.62
2018-09-30T10:24:41.121Z,1009.60
2018-09-30T10:25:41.093Z,1009.59
2018-09-30T10:26:41.071Z,1009.55
2018-09-30T10:27:41.087Z,1009.58
2018-09-30T10:28:41.017Z,1009.54
2018-09-30T10:29:40.994Z,1009.53
2018-09-30T10:30:40.965Z,1009.50
2018-09-30T10:31:40.940Z,1009.49
2018-09-30T10:32:40.915Z,1009.49
2018-09-30T10:33:40.889Z,1009.46
2018-09-30T10:34:40.865Z,1009.50
2018-09-30T10:35:40.838Z,1009.49
2018-09-30T10:36:40.812Z,1009.46
2018-09-30T10:37:40.788Z,1009.42
2018-09-30T10:38:40.880Z,1009.44
2018-09-30T10:39:40.736Z,1009.42
2018-09-30T10:40:40.712Z,1009.40
2018-09-30T10:41:40.685Z,1009.33
2018-09-30T10:42:40.659Z,1009.25
2018-09-30T10:43:40.636Z,1009.28
2018-09-30T10:44:41.112Z,1009.26
2018-09-30T10:45:40.584Z,1009.29
2018-09-30T10:46:40.559Z,1009.30
2018-09-30T10:47:40.535Z,1009.36
2018-09-30T10:48:40.508Z,1009.28
2018-09-30T10:49:40.485Z,1009.26
2018-09-30T10:50:40.461Z,1009.21
2018-09-30T10:51:40.436Z,1009.22
2018-09-30T10:52:40.408Z,1009.21
2018-09-30T10:53:40.385Z,1009.17
2018-09-30T10:54:40.358Z,1009.11
2018-09-30T10:55:41.112Z,1009.12
2018-09-30T10:56:40.349Z,1009.10
2018-09-30T10:57:40.283Z,1009.03
2018-09-30T10:58:42.115Z,1009.01
2018-09-30T10:59:40.234Z,1009.04
2018-09-30T11:00:40.207Z,1009.02
2018-09-30T11:01:40.181Z,1009.00
2018-09-30T11:02:40.160Z,1009.00
2018-09-30T11:03:40.224Z,1008.99
2018-09-30T11:04:40.113Z,1008.99
2018-09-30T11:05:40.082Z,1008.99
2018-09-30T11:06:40.058Z,1008.96
2018-09-30T11:07:40.033Z,1008.94
2018-09-30T11:08:40.009Z,1008.99
2018-09-30T11:09:40.006Z,1008.95
2018-09-30T11:10:39.957Z,1008.93
2018-09-30T11:11:39.933Z,1008.92
2018-09-30T11:12:39.908Z,1008.94
2018-09-30T11:13:39.884Z,1008.91
2018-09-30T11:14:39.860Z,1008.89
2018-09-30T11:15:39.833Z,1008.90
2018-09-30T11:16:39.811Z,1008.90
2018-09-30T11:17:39.785Z,1008.87
2018-09-30T11:18:39.759Z,1008.85
2018-09-30T11:19:39.736Z,1008.82
2018-09-30T11:20:39.715Z,1008.79
2018-09-30T11:21:39.686Z,1008.76
2018-09-30T11:22:39.750Z,1008.76
2018-09-30T11:23:39.639Z,1008.73
2018-09-30T11:24:39.612Z,1008.70
2018-09-30T11:25:39.587Z,1008.71
2018-09-30T11:26:39.562Z,1008.68
2018-09-30T11:27:39.538Z,1008.73
2018-09-30T11:28:39.511Z,1008.70
2018-09-30T11:29:39.487Z,1008.71
2018-09-30T11:30:39.462Z,1008.70
2018-09-30T11:31:39.454Z,1008.73
2018-09-30T11:32:39.413Z,1008.69
2018-09-30T11:33:39.389Z,1008.64
2018-09-30T11:34:39.364Z,1008.63
2018-09-30T11:35:39.338Z,1008.65
2018-09-30T11:36:39.313Z,1008.59
2018-09-30T11:37:39.289Z,1008.58
2018-09-30T11:38:39.264Z,1008.60
2018-09-30T11:39:39.241Z,1008.58
2018-09-30T11:40:39.217Z,1008.55
2018-09-30T11:41:39.192Z,1008.52
2018-09-30T11:42:39.181Z,1008.47
2018-09-30T11:43:39.146Z,1008.41
2018-09-30T11:44:39.121Z,1008.42
2018-09-30T11:45:39.092Z,1008.36
2018-09-30T11:46:39.069Z,1008.34
2018-09-30T11:47:39.043Z,1008.35
2018-09-30T11:48:39.021Z,1008.32
2018-09-30T11:49:39.626Z,1008.34
2018-09-30T11:50:38.969Z,1008.33
2018-09-30T11:51:38.945Z,1008.32
2018-09-30T11:52:38.940Z,1008.23
2018-09-30T11:53:38.895Z,1008.24
2018-09-30T11:54:38.875Z,1008.21
2018-09-30T11:55:38.847Z,1008.14
2018-09-30T11:56:38.824Z,1008.23
2018-09-30T11:57:38.798Z,1008.20
2018-09-30T11:58:38.773Z,1008.19
2018-09-30T11:59:39.629Z,1008.18
2018-09-30T12:00:38.726Z,1008.16
2018-09-30T12:01:38.701Z,1008.14
2018-09-30T12:02:38.677Z,1008.18
2018-09-30T12:03:38.652Z,1008.17
2018-09-30T12:04:38.628Z,1008.14
2018-09-30T12:05:38.604Z,1008.14
2018-09-30T12:06:38.580Z,1008.10
2018-09-30T12:07:38.555Z,1008.13
2018-09-30T12:08:38.531Z,1008.06
2018-09-30T12:09:38.507Z,1008.04
2018-09-30T12:10:38.482Z,1008.06
2018-09-30T12:11:38.458Z,1008.03
2018-09-30T12:12:38.434Z,1008.03
2018-09-30T12:13:38.409Z,1007.99
2018-09-30T12:14:38.388Z,1008.02
2018-09-30T12:15:38.361Z,1007.92
2018-09-30T12:16:38.337Z,1007.91
2018-09-30T12:17:38.314Z,1007.89
2018-09-30T12:18:38.337Z,1007.87
2018-09-30T12:19:38.267Z,1007.84
2018-09-30T12:20:38.243Z,1007.82